Tarija, Tarija Airport (SLTJ)

NameTarija Airport
CityTarija
CountryBolivia
ICAOSLTJ
IATATJA
Altitude1854 m
CoordinatesGoogle Map
Live Air TrafficLiveATC.net
METARSLTJ 162300Z 13007KT 9999 FEW040 SCT200 23/08 Q1017
2019-11-16 23:00:00 Wind: East-Southeast (130°) 3.6 m/s - Visibility: > 10000 m - Temperature: 23 °C - Dew point: 8 °C - Humidity: 38.3% - Pressure: 1017 hPa
Statistics

The table below shows the detailed information of all flights to/from Tarija, Tarija Airport (SLTJ).

Ident Aircraft Coming fromFrom Going toTo Owner nameOwnerSpotted durationDurationDate
CP-2716 - B733 - Boliviana de Aviacion BOV521 BOEING 737-300 B733 Tarija, Bolivia (SLTJ) SLTJ
388 km
Cochabamba, Bolivia (SLCB) SLCB
99 km
Boliviana De Aviacion Boliviana De Aviacion 00:05:28 00:05:28 Mon, 04 Nov 2019 10:29:39 +0000 4/11/2019 10:29 am
Mon, 04 Nov 2019 10:35:07 +0000 4/11/2019 10:35 am
CP-2923 - B737 - Boliviana de Aviacion BOV524 BOEING 737-700 B737 Cochabamba, Bolivia (SLCB) SLCB
178 km
Tarija, Bolivia (SLTJ) SLTJ
307 km
Boliviana De Aviacion Boliviana De Aviacion - - Wed, 09 Oct 2019 11:55:19 +0000 9/10/2019 11:55 am
CP-2554 - B733 - Boliviana de Aviacion BOV536 BOEING 737-300 B733 Cochabamba, Bolivia (SLCB) SLCB
330 km
Tarija, Bolivia (SLTJ) SLTJ
157 km
Boliviana De Aviacion Boliviana De Aviacion 00:05:39 00:05:39 Wed, 09 Oct 2019 02:57:09 +0000 9/10/2019 2:57 am
Wed, 09 Oct 2019 03:02:48 +0000 9/10/2019 3:02 am